createdAt,value
2023-01-18T08:09:22.533Z,99155.40
2023-01-18T08:11:49.414Z,99150.36
2023-01-18T08:14:16.390Z,99147.86
2023-01-18T08:16:43.373Z,99141.27
2023-01-18T08:19:10.429Z,99144.81
2023-01-18T08:21:37.317Z,99151.17
2023-01-18T08:24:04.432Z,99156.52
2023-01-18T08:26:31.261Z,99156.10
2023-01-18T08:28:58.099Z,99152.48
2023-01-18T08:31:24.968Z,99145.04
2023-01-18T08:33:53.005Z,99145.02
2023-01-18T08:36:24.402Z,99142.54
2023-01-18T08:38:52.814Z,99139.08
2023-01-18T08:41:20.065Z,99139.46
2023-01-18T08:43:51.142Z,99136.45
2023-01-18T08:46:18.436Z,99130.16
2023-01-18T08:48:48.836Z,99127.58
2023-01-18T08:51:18.250Z,99117.94
2023-01-18T08:53:46.525Z,99120.44
2023-01-18T08:56:13.704Z,99116.48
2023-01-18T08:58:40.550Z,99113.43
2023-01-18T09:01:08.626Z,99112.48
2023-01-18T09:03:35.646Z,99117.33
2023-01-18T09:06:03.735Z,99109.23
2023-01-18T09:08:31.782Z,99111.45
2023-01-18T09:11:03.670Z,99109.46
2023-01-18T09:13:31.500Z,99109.46
2023-01-18T09:16:06.054Z,99108.94
2023-01-18T09:18:33.557Z,99096.93
2023-01-18T09:21:05.934Z,99095.42
2023-01-18T09:23:32.742Z,99096.65
2023-01-18T09:26:04.625Z,99096.17
2023-01-18T09:28:32.118Z,99094.17
2023-01-18T09:31:02.941Z,99088.02
2023-01-18T09:33:37.544Z,99084.83
2023-01-18T09:36:10.094Z,99073.16
2023-01-18T09:46:32.927Z,99068.56
2023-01-18T09:49:00.946Z,99071.35
2023-01-18T09:51:31.476Z,99065.67
2023-01-18T09:54:45.163Z,99067.50
2023-01-18T10:04:50.119Z,99063.88
2023-01-18T10:07:17.051Z,99069.52
2023-01-18T10:09:54.488Z,99069.85
2023-01-18T10:12:39.231Z,99068.80
2023-01-18T10:15:10.782Z,99062.75
2023-01-18T10:17:41.793Z,99057.14
2023-01-18T10:20:18.851Z,99056.16
2023-01-18T10:22:51.233Z,99054.74
2023-01-18T10:25:44.387Z,99056.52
2023-01-18T10:28:26.387Z,99054.20
2023-01-18T10:31:03.978Z,99053.71
2023-01-18T10:33:35.249Z,99054.92
2023-01-18T10:36:05.044Z,99052.94
2023-01-18T10:38:31.856Z,99049.81
2023-01-18T10:41:00.326Z,99047.80
2023-01-18T10:43:28.860Z,99043.98
2023-01-18T10:45:56.010Z,99038.57
2023-01-18T10:48:26.395Z,99042.38
2023-01-18T10:50:55.656Z,99037.34
2023-01-18T10:53:36.587Z,99028.62
2023-01-18T10:56:13.119Z,99026.88
2023-01-18T10:58:46.076Z,99029.30
2023-01-18T11:01:15.274Z,99027.52
2023-01-18T11:04:08.202Z,99020.13
2023-01-18T11:06:50.989Z,99024.73
2023-01-18T11:09:45.622Z,99026.11
2023-01-18T11:12:42.150Z,99022.82
2023-01-18T11:15:15.187Z,99026.05
2023-01-18T11:17:56.328Z,99014.45
2023-01-18T11:20:35.781Z,99012.55
2023-01-18T11:23:06.442Z,99014.06
2023-01-18T11:25:41.764Z,99007.27
2023-01-18T11:28:54.731Z,99006.48
2023-01-18T11:31:23.496Z,99000.52
2023-01-18T11:34:00.356Z,98996.70
2023-01-18T11:36:38.580Z,98995.23
2023-01-18T11:39:36.817Z,99003.96
2023-01-18T11:42:14.161Z,99005.12
2023-01-18T11:45:08.995Z,99005.38
2023-01-18T11:47:48.435Z,99003.27
2023-01-18T11:50:28.596Z,99000.98
2023-01-18T11:53:10.008Z,99009.52
2023-01-18T11:55:40.833Z,99013.18
2023-01-18T11:58:28.830Z,99010.27
2023-01-18T12:01:04.710Z,99007.13
2023-01-18T12:03:56.463Z,99010.92
2023-01-18T12:06:33.667Z,99013.51
2023-01-18T12:09:15.695Z,99014.02
2023-01-18T12:11:46.813Z,99011.98
2023-01-18T12:14:38.743Z,99010.03
2023-01-18T12:17:20.576Z,99015.95
2023-01-18T12:19:56.702Z,99015.36
2023-01-18T12:23:12.361Z,99011.92
2023-01-18T12:25:42.464Z,99015.13
2023-01-18T12:28:33.153Z,99014.63
2023-01-18T12:31:09.470Z,99016.98
2023-01-18T12:33:44.264Z,99018.77
2023-01-18T12:36:35.974Z,99024.95
2023-01-18T12:39:12.185Z,99027.35
2023-01-18T12:41:49.353Z,99029.13
2023-01-18T12:44:49.780Z,99025.28
2023-01-18T12:47:47.891Z,99027.29
2023-01-18T12:50:31.046Z,99030.40
2023-01-18T12:53:00.872Z,99031.52
2023-01-18T12:55:28.501Z,99036.34
2023-01-18T12:57:59.267Z,99037.58
2023-01-18T13:00:32.230Z,99030.92
2023-01-18T13:02:59.079Z,99030.27
2023-01-18T13:05:44.051Z,99035.45
2023-01-18T13:08:15.683Z,99033.54
2023-01-18T13:10:42.519Z,99031.95
2023-01-18T13:13:13.551Z,99037.23
2023-01-18T13:15:52.989Z,99037.93
2023-01-18T13:18:21.968Z,99035.26
2023-01-18T13:21:00.760Z,99038.60
2023-01-18T13:23:53.704Z,99037.14
2023-01-18T13:26:34.173Z,99033.92
2023-01-18T13:29:10.640Z,99034.56
2023-01-18T13:31:37.901Z,99031.52
2023-01-18T13:34:04.837Z,99036.58
2023-01-18T13:36:45.419Z,99034.02
2023-01-18T13:39:22.631Z,99032.71
2023-01-18T13:42:11.036Z,99040.86
2023-01-18T13:44:42.944Z,99039.20
2023-01-18T13:47:47.323Z,99039.05
2023-01-18T13:50:34.706Z,99040.15
2023-01-18T13:53:14.287Z,99044.14
2023-01-18T13:56:00.285Z,99042.06
2023-01-18T13:58:31.427Z,99038.39
2023-01-18T14:01:00.160Z,99040.14
2023-01-18T14:03:39.625Z,99036.55
2023-01-18T14:06:10.363Z,99048.14
2023-01-18T14:08:40.064Z,99052.17
2023-01-18T14:11:09.250Z,99055.06
2023-01-18T14:13:45.440Z,99051.97
2023-01-18T14:16:16.728Z,99053.25
2023-01-18T14:19:17.616Z,99055.73
2023-01-18T14:21:47.701Z,99060.48
2023-01-18T14:24:39.251Z,99061.02
2023-01-18T14:27:07.070Z,99060.33
2023-01-18T14:29:51.337Z,99061.02
2023-01-18T14:32:23.223Z,99059.83
2023-01-18T14:35:34.924Z,99061.82
2023-01-18T14:38:17.356Z,99061.19
2023-01-18T14:40:47.212Z,99066.73
2023-01-18T14:43:16.640Z,99068.71
2023-01-18T14:45:52.160Z,99065.77
2023-01-18T14:48:19.528Z,99069.71
2023-01-18T14:50:47.387Z,99071.65
2023-01-18T14:53:24.059Z,99073.90
2023-01-18T14:56:18.512Z,99070.64
2023-01-18T14:59:22.734Z,99068.48
2023-01-18T15:01:58.189Z,99071.98
2023-01-18T15:04:26.925Z,99074.30
2023-01-18T15:07:08.088Z,99079.42
2023-01-18T15:09:38.993Z,99078.09
2023-01-18T15:12:07.806Z,99075.15
2023-01-18T15:14:40.559Z,99075.10
2023-01-18T15:17:09.008Z,99078.70
2023-01-18T15:19:39.579Z,99078.40
2023-01-18T15:22:08.515Z,99074.55
2023-01-18T15:24:40.629Z,99076.08
2023-01-18T15:27:12.355Z,99081.05
2023-01-18T15:29:39.221Z,99080.67
2023-01-18T15:32:22.259Z,99083.55
2023-01-18T15:34:50.365Z,99079.06
2023-01-18T15:37:33.660Z,99074.99
2023-01-18T15:40:06.072Z,99079.71
2023-01-18T15:42:42.796Z,99082.69
2023-01-18T15:45:30.832Z,99079.91
2023-01-18T15:48:00.594Z,99075.38
2023-01-18T15:50:38.980Z,99073.86
2023-01-18T15:53:06.413Z,99068.41
2023-01-18T15:55:53.382Z,99069.40
2023-01-18T15:58:29.964Z,99074.49
2023-01-18T16:01:01.619Z,99071.24
2023-01-18T16:03:39.049Z,99069.89
2023-01-18T16:06:10.510Z,99072.37
2023-01-18T16:09:11.839Z,99078.35
2023-01-18T16:11:52.144Z,99083.99
2023-01-18T16:14:28.474Z,99088.28
2023-01-18T16:16:56.142Z,99094.27
2023-01-18T16:19:34.831Z,99096.88
2023-01-18T16:22:06.031Z,99098.23
2023-01-18T16:24:35.488Z,99093.02
2023-01-18T16:27:11.449Z,99097.60
2023-01-18T16:29:48.320Z,99101.73
2023-01-18T16:32:36.709Z,99104.66
2023-01-18T16:35:14.335Z,99107.77
2023-01-18T16:37:42.148Z,99117.34
2023-01-18T16:40:09.546Z,99123.42
2023-01-18T16:43:02.166Z,99120.69
2023-01-18T16:45:29.788Z,99129.11
2023-01-18T16:47:56.911Z,99128.02
2023-01-18T16:50:24.127Z,99120.88
2023-01-18T16:52:51.364Z,99115.57
2023-01-18T16:55:18.433Z,99110.15
2023-01-18T16:57:45.391Z,99116.65
2023-01-18T17:00:22.967Z,99138.42
2023-01-18T17:02:50.059Z,99150.08
2023-01-18T17:05:17.153Z,99148.66
2023-01-18T17:07:44.203Z,99151.67
2023-01-18T17:10:21.529Z,99157.52
2023-01-18T17:12:48.430Z,99146.30
2023-01-18T17:15:16.125Z,99146.99
2023-01-18T17:17:43.808Z,99156.57
2023-01-18T17:20:17.953Z,99157.05
2023-01-18T17:22:44.947Z,99172.38
2023-01-18T17:25:11.712Z,99190.69
2023-01-18T17:27:38.553Z,99200.76
2023-01-18T17:30:06.369Z,99217.39
2023-01-18T17:32:33.173Z,99228.34
2023-01-18T17:35:00.096Z,99235.98
2023-01-18T17:37:27.152Z,99235.96
2023-01-18T17:40:10.871Z,99228.63
2023-01-18T17:42:40.856Z,99228.27
2023-01-18T17:45:14.543Z,99227.19
2023-01-18T17:47:42.769Z,99225.40
2023-01-18T17:50:11.680Z,99223.55
2023-01-18T17:52:39.533Z,99207.89
2023-01-18T17:55:07.573Z,99201.34
2023-01-18T17:57:34.924Z,99190.88
2023-01-18T18:00:02.349Z,99180.33
2023-01-18T18:02:34.777Z,99177.75
2023-01-18T18:05:01.683Z,99179.39
2023-01-18T18:07:28.481Z,99192.46
2023-01-18T18:10:00.949Z,99196.30
2023-01-18T18:12:29.601Z,99196.20
2023-01-18T18:14:56.846Z,99190.48
2023-01-18T18:17:24.759Z,99191.23
2023-01-18T18:19:51.541Z,99194.55
2023-01-18T18:22:20.038Z,99210.77
2023-01-18T18:24:47.707Z,99220.43
2023-01-18T18:27:14.851Z,99235.96
2023-01-18T18:29:41.735Z,99256.10
2023-01-18T18:32:08.875Z,99249.04
2023-01-18T18:34:36.103Z,99254.16
2023-01-18T18:37:05.074Z,99269.50
2023-01-18T18:39:33.084Z,99270.46
2023-01-18T18:42:00.546Z,99265.91
2023-01-18T18:44:27.474Z,99264.49
2023-01-18T18:46:54.508Z,99252.98
2023-01-18T18:49:21.664Z,99240.71
2023-01-18T18:51:48.506Z,99242.77
2023-01-18T18:54:15.706Z,99246.16
2023-01-18T18:56:42.925Z,99248.16
2023-01-18T18:59:09.849Z,99255.01
2023-01-18T19:01:36.858Z,99259.44
2023-01-18T19:04:05.634Z,99259.79
2023-01-18T19:06:32.740Z,99255.72
2023-01-18T19:08:59.571Z,99252.30
2023-01-18T19:11:26.525Z,99251.80
2023-01-18T19:13:54.320Z,99246.90
2023-01-18T19:16:21.134Z,99249.69
2023-01-18T19:18:48.075Z,99255.36
2023-01-18T19:21:15.339Z,99264.86
2023-01-18T19:23:42.375Z,99269.77
2023-01-18T19:26:09.434Z,99281.51
2023-01-18T19:28:36.582Z,99285.40
2023-01-18T19:31:04.555Z,99283.08
2023-01-18T19:33:31.335Z,99277.60
2023-01-18T19:35:58.545Z,99284.05
2023-01-18T19:38:25.785Z,99283.94
2023-01-18T19:40:53.044Z,99283.83
2023-01-18T19:43:19.961Z,99284.35
2023-01-18T19:45:46.847Z,99288.94
2023-01-18T19:48:13.669Z,99296.36
2023-01-18T19:50:40.724Z,99305.63
2023-01-18T19:53:07.692Z,99310.95
2023-01-18T19:55:36.661Z,99315.89
2023-01-18T19:58:03.771Z,99319.14
2023-01-18T20:00:30.886Z,99324.85
2023-01-18T20:02:58.531Z,99329.16
2023-01-18T20:05:26.045Z,99333.75
2023-01-18T20:07:53.534Z,99346.13
2023-01-18T20:10:20.789Z,99353.59
2023-01-18T20:12:48.656Z,99358.02
2023-01-18T20:15:17.346Z,99360.03
2023-01-18T20:17:44.190Z,99363.30
2023-01-18T20:20:16.123Z,99360.33
2023-01-18T20:22:46.377Z,99355.85
2023-01-18T20:25:13.445Z,99358.52
2023-01-18T20:27:40.669Z,99358.73
2023-01-18T20:30:09.189Z,99366.39
2023-01-18T20:32:36.125Z,99375.43
2023-01-18T20:35:02.983Z,99383.13
2023-01-18T20:37:29.893Z,99382.85
2023-01-18T20:39:56.784Z,99386.38
2023-01-18T20:42:23.639Z,99389.80
2023-01-18T20:44:53.718Z,99394.21
2023-01-18T20:47:20.629Z,99395.60
2023-01-18T20:49:47.935Z,99395.25
2023-01-18T20:52:14.799Z,99395.94
2023-01-18T20:54:41.793Z,99400.81
2023-01-18T20:57:09.526Z,99401.42
2023-01-18T20:59:36.418Z,99403.23
2023-01-18T21:02:03.791Z,99412.84
2023-01-18T21:04:31.181Z,99421.27
2023-01-18T21:06:58.445Z,99424.13
2023-01-18T21:09:25.771Z,99426.39
2023-01-18T21:11:52.684Z,99428.42
2023-01-18T21:14:19.522Z,99428.20
2023-01-18T21:16:46.670Z,99431.30
2023-01-18T21:19:13.750Z,99432.64
2023-01-18T21:21:40.892Z,99433.96
2023-01-18T21:24:07.806Z,99436.27
2023-01-18T21:26:36.192Z,99440.50
2023-01-18T21:29:04.071Z,99439.19
2023-01-18T21:31:30.963Z,99437.67
2023-01-18T21:33:57.928Z,99432.98
2023-01-18T21:36:25.125Z,99435.87
2023-01-18T21:38:52.272Z,99436.11
2023-01-18T21:41:37.943Z,99442.08
2023-01-18T21:44:23.491Z,99444.30
2023-01-18T21:46:51.969Z,99449.21
2023-01-18T21:50:16.651Z,99454.98
2023-01-18T21:52:43.751Z,99457.13
2023-01-18T21:55:10.672Z,99459.38
2023-01-18T21:57:38.987Z,99463.88
2023-01-18T22:00:06.711Z,99465.14
2023-01-18T22:02:36.679Z,99463.38
2023-01-18T22:05:04.116Z,99466.75
2023-01-18T22:07:32.894Z,99473.72
2023-01-18T22:10:05.046Z,99479.83
2023-01-18T22:12:35.476Z,99484.69
2023-01-18T22:15:04.439Z,99488.27
2023-01-18T22:17:31.616Z,99487.98
2023-01-18T22:19:58.985Z,99493.39
2023-01-18T22:22:26.348Z,99501.96
2023-01-18T22:24:55.326Z,99498.07
2023-01-18T22:27:22.112Z,99500.95
2023-01-18T22:29:51.129Z,99509.54
2023-01-18T22:32:18.099Z,99511.45
2023-01-18T22:34:47.622Z,99509.95
2023-01-18T22:37:15.696Z,99505.53
2023-01-18T22:39:44.868Z,99505.14
2023-01-18T22:42:11.903Z,99505.95
2023-01-18T22:44:38.715Z,99504.30
2023-01-18T22:47:05.553Z,99511.70
2023-01-18T22:49:32.434Z,99513.02
2023-01-18T22:51:59.484Z,99514.73
2023-01-18T22:54:28.989Z,99523.61
2023-01-18T22:56:55.768Z,99530.56
2023-01-18T22:59:22.669Z,99531.48
2023-01-18T23:01:50.571Z,99538.23
2023-01-18T23:04:21.783Z,99544.56
2023-01-18T23:06:50.788Z,99548.72
2023-01-18T23:09:18.887Z,99558.13
2023-01-18T23:11:47.613Z,99561.09
2023-01-18T23:14:33.804Z,99559.31
2023-01-18T23:17:19.474Z,99560.20
2023-01-18T23:19:46.739Z,99558.70
2023-01-18T23:22:14.228Z,99561.94
2023-01-18T23:24:41.034Z,99565.55
2023-01-18T23:27:09.852Z,99561.59
2023-01-18T23:29:39.291Z,99570.23
2023-01-18T23:32:07.519Z,99575.16
2023-01-18T23:42:32.597Z,99559.41
2023-01-18T23:45:18.158Z,99548.95
2023-01-18T23:48:04.239Z,99551.80
2023-01-18T23:50:50.416Z,99570.13
2023-01-18T23:53:36.303Z,99577.30
2023-01-18T23:56:03.297Z,99574.93
2023-01-18T23:58:30.211Z,99576.06
